Albee, South Dakota
Current Conditions -  °F | °C
As of 8:33 PM on Saturday 25 Oct 2014 (Local Time) from KDXX Reporting Station
Clear Clear  
Wind Chill:   Ceiling: Unl
Heat Index:   Visibility: 10mi
Dew Point: -1°   Wind: 0mph
Humidity: 53%   Direction: NA
Pressure: 30.06"   Gusts: NA
Location:  45.0205°N, 96.5453°W
Report Text: KDXX 260133Z AUTO 00000KT 10SM CLR 08/M01 A3006 RMK AO2
Loading
Personal Weather Stations






























Interactive Weather Map
Tropical Storm Tracking
New forecast layout! Learn more

10-Day Weather Forecast

Advertisements
Track Severe Weather on mobile